MDT,Max TemperatureF,Mean TemperatureF,Min TemperatureF,Max Dew PointF,MeanDew PointF,Min DewpointF,Max Humidity, Mean Humidity, Min Humidity, Max Sea Level PressureIn, Mean Sea Level PressureIn, Min Sea Level PressureIn, Max VisibilityMiles, Mean VisibilityMiles, Min VisibilityMiles, Max Wind SpeedMPH, Mean Wind SpeedMPH, Max Gust SpeedMPH,PrecipitationIn, CloudCover, Events, WindDirDegrees
2013-7-1,94,79,64,50,41,33,41,28,15,30.02,29.94,29.86,10,10,10,16,6,22,0.00,0,,289
2013-7-2,97,82,67,45,38,28,37,23,9,29.99,29.91,29.81,10,10,10,17,6,25,0.00,0,,327
2013-7-3,94,78,62,48,38,29,38,25,12,30.09,29.88,29.75,10,10,9,31,5,38,T,1,Rain-Thunderstorm,1
2013-7-4,86,75,63,55,50,46,73,49,25,29.88,29.80,29.71,10,10,10,18,4,25,T,2,Rain,279
2013-7-5,92,79,65,54,48,37,58,40,21,29.77,29.71,29.60,10,10,10,32,8,47,0.00,0,,300
2013-7-6,89,76,62,53,47,39,72,45,18,29.95,29.81,29.72,10,10,9,25,4,32,T,1,Rain-Thunderstorm,200
2013-7-7,89,74,59,55,49,42,78,50,21,30.17,29.92,29.80,10,10,5,29,5,44,0.03,2,Rain-Thunderstorm,262
2013-7-8,89,72,55,52,47,42,77,49,21,30.04,29.97,29.92,10,10,10,18,7,24,0.00,0,,294
2013-7-9,94,78,62,49,41,31,52,32,11,30.06,29.97,29.88,10,10,10,14,5,20,0.00,0,,257
2013-7-10,96,77,58,48,39,30,52,32,11,30.00,29.89,29.76,10,10,10,13,5,22,0.00,0,,237
2013-7-11,95,77,59,56,40,29,57,34,10,29.86,29.79,29.69,10,10,10,26,5,39,T,1,Rain,248
2013-7-12,85,74,63,58,54,50,73,53,33,29.91,29.87,29.83,10,10,10,20,3,28,T,4,,249
2013-7-13,85,74,62,57,53,46,68,50,31,30.19,29.99,29.91,10,10,8,25,5,31,0.04,3,Rain-Thunderstorm,278
2013-7-14,90,74,58,55,48,38,73,45,17,30.14,29.97,29.86,10,10,10,29,5,36,0.00,0,,298
2013-7-15,95,79,62,52,45,39,56,36,15,29.91,29.82,29.72,10,10,10,20,4,23,0.00,0,,275
2013-7-16,94,80,66,54,50,43,58,39,20,30.02,29.85,29.78,10,10,10,36,4,47,0.00,0,Thunderstorm,316
2013-7-17,94,78,62,57,52,46,67,44,21,30.17,29.99,29.88,10,10,10,24,6,31,T,1,Rain-Thunderstorm,303
2013-7-18,90,78,66,56,53,48,68,48,27,30.17,30.01,29.88,10,10,10,16,3,20,0.00,1,Thunderstorm,253
2013-7-19,94,77,60,53,44,23,65,39,12,30.00,29.90,29.77,10,10,10,12,4,24,0.00,0,,252
2013-7-20,95,77,58,42,33,24,42,26,9,29.89,29.79,29.70,10,10,10,12,4,15,0.00,0,,214
2013-7-21,96,77,58,42,34,24,55,32,8,29.82,29.76,29.70,10,10,10,21,4,31,0.00,0,,268
2013-7-22,97,79,60,47,33,18,37,23,8,29.89,29.81,29.75,10,10,10,18,4,29,0.00,0,,229
2013-7-23,98,80,62,46,30,19,32,19,6,29.93,29.84,29.77,10,10,10,10,4,15,0.00,0,,249
2013-7-24,82,71,60,56,41,26,65,42,19,29.98,29.92,29.84,10,10,9,22,4,31,0.02,2,Rain,243
2013-7-25,90,73,55,51,45,38,67,42,17,30.21,29.99,29.90,10,10,10,21,6,30,0.01,1,,1
2013-7-26,93,77,61,53,43,38,48,32,15,30.10,30.00,29.89,10,10,10,15,4,30,0.00,0,,291
2013-7-27,84,72,59,55,44,28,63,40,16,30.07,29.89,29.84,10,10,10,17,5,23,0.06,3,Rain,335
2013-7-28,77,68,59,59,55,49,97,68,38,29.89,29.85,29.81,10,10,6,21,4,25,0.14,3,Rain,292
2013-7-29,85,72,59,56,50,40,84,53,22,30.21,29.98,29.86,10,10,2,24,5,33,0.29,2,Rain-Thunderstorm,305
2013-7-30,84,69,54,56,52,46,93,62,31,30.26,30.12,30.04,10,10,10,21,5,26,0.00,0,Thunderstorm,319
2013-7-31,90,74,57,52,45,35,63,39,15,30.15,30.05,29.91,10,10,10,13,3,17,0.00,0,,293